createdAt,value
2023-05-03T00:00:00.861Z,5.43
2023-05-03T00:02:32.289Z,5.40
2023-05-03T00:05:02.060Z,5.35
2023-05-03T00:07:31.693Z,5.33
2023-05-03T00:10:05.543Z,5.29
2023-05-03T00:12:36.507Z,5.26
2023-05-03T00:15:08.617Z,5.25
2023-05-03T00:17:38.900Z,5.23
2023-05-03T00:20:10.022Z,5.21
2023-05-03T00:22:39.494Z,5.18
2023-05-03T00:25:10.980Z,5.13
2023-05-03T00:27:41.936Z,5.10
2023-05-03T00:30:13.015Z,5.09
2023-05-03T00:32:42.479Z,5.07
2023-05-03T00:35:12.080Z,5.08
2023-05-03T00:37:41.520Z,5.10
2023-05-03T00:40:12.071Z,5.14
2023-05-03T00:42:42.840Z,5.14
2023-05-03T00:45:12.751Z,5.15
2023-05-03T00:47:42.459Z,5.10
2023-05-03T00:50:12.492Z,5.03
2023-05-03T00:52:42.978Z,4.98
2023-05-03T00:55:13.913Z,4.95
2023-05-03T00:57:44.704Z,4.87
2023-05-03T01:00:17.856Z,4.83
2023-05-03T01:02:47.463Z,4.77
2023-05-03T01:05:17.747Z,4.74
2023-05-03T01:08:04.206Z,4.68
2023-05-03T01:10:43.438Z,4.64
2023-05-03T01:13:26.672Z,4.58
2023-05-03T01:16:09.315Z,4.52
2023-05-03T01:18:44.279Z,4.49
2023-05-03T01:21:18.773Z,4.43
2023-05-03T01:24:00.734Z,4.37
2023-05-03T01:26:31.684Z,4.37
2023-05-03T01:29:01.337Z,4.31
2023-05-03T01:31:39.636Z,4.30
2023-05-03T01:34:28.697Z,4.30
2023-05-03T01:37:03.339Z,4.29
2023-05-03T01:39:45.631Z,4.24
2023-05-03T01:42:17.077Z,4.22
2023-05-03T01:44:48.557Z,4.17
2023-05-03T01:47:18.381Z,4.11
2023-05-03T01:49:47.801Z,4.06
2023-05-03T01:52:17.611Z,4.04
2023-05-03T01:54:47.336Z,4.02
2023-05-03T01:57:18.134Z,3.96
2023-05-03T01:59:47.633Z,3.93
2023-05-03T02:02:17.315Z,3.90
2023-05-03T02:04:47.386Z,3.91
2023-05-03T02:07:17.013Z,3.88
2023-05-03T02:09:48.044Z,3.89
2023-05-03T02:12:19.771Z,3.88
2023-05-03T02:14:49.378Z,3.89
2023-05-03T02:17:18.942Z,3.90
2023-05-03T02:19:48.359Z,3.90
2023-05-03T02:22:17.908Z,3.92
2023-05-03T02:24:48.024Z,3.90
2023-05-03T02:27:18.983Z,3.90
2023-05-03T02:29:48.515Z,3.90
2023-05-03T02:32:18.756Z,3.89
2023-05-03T02:34:50.820Z,3.86
2023-05-03T02:37:23.429Z,3.78
2023-05-03T02:39:52.921Z,3.67
2023-05-03T02:42:24.011Z,3.59
2023-05-03T02:44:53.565Z,3.52
2023-05-03T02:47:23.584Z,3.47
2023-05-03T02:49:53.143Z,3.43
2023-05-03T02:52:22.584Z,3.39
2023-05-03T02:54:52.092Z,3.39
2023-05-03T02:57:22.889Z,3.40
2023-05-03T02:59:52.758Z,3.39
2023-05-03T03:02:23.095Z,3.38
2023-05-03T03:04:52.733Z,3.40
2023-05-03T03:07:22.189Z,3.43
2023-05-03T03:09:53.587Z,3.44
2023-05-03T03:12:25.312Z,3.48
2023-05-03T03:14:55.965Z,3.48
2023-05-03T03:17:26.089Z,3.50
2023-05-03T03:19:55.586Z,3.50
2023-05-03T03:22:25.386Z,3.54
2023-05-03T03:24:55.016Z,3.52
2023-05-03T03:27:26.065Z,3.52
2023-05-03T03:29:55.722Z,3.57
2023-05-03T03:32:25.913Z,3.63
2023-05-03T03:34:57.911Z,3.68
2023-05-03T03:37:27.362Z,3.69
2023-05-03T03:39:57.436Z,3.73
2023-05-03T03:42:28.439Z,3.77
2023-05-03T03:44:58.461Z,3.80
2023-05-03T03:47:28.283Z,3.84
2023-05-03T03:49:57.910Z,3.87
2023-05-03T03:52:27.566Z,3.90
2023-05-03T03:54:58.056Z,3.92
2023-05-03T03:57:30.405Z,3.95
2023-05-03T04:00:01.137Z,3.98
2023-05-03T04:02:33.491Z,4.00
2023-05-03T04:05:03.826Z,4.03
2023-05-03T04:07:33.407Z,4.08
2023-05-03T04:10:03.144Z,4.11
2023-05-03T04:12:34.391Z,4.18
2023-05-03T04:15:04.773Z,4.20
2023-05-03T04:17:35.047Z,4.24
2023-05-03T04:20:11.256Z,4.27
2023-05-03T04:22:42.909Z,4.28
2023-05-03T04:25:15.097Z,4.28
2023-05-03T04:27:49.022Z,4.28
2023-05-03T04:30:20.731Z,4.31
2023-05-03T04:32:54.413Z,4.35
2023-05-03T04:35:25.625Z,4.39
2023-05-03T04:37:55.168Z,4.42
2023-05-03T04:40:27.987Z,4.47
2023-05-03T04:43:06.420Z,4.54
2023-05-03T04:45:39.584Z,4.58
2023-05-03T04:48:12.309Z,4.62
2023-05-03T04:50:41.895Z,4.66
2023-05-03T04:53:13.109Z,4.71
2023-05-03T04:55:45.378Z,4.78
2023-05-03T04:58:16.287Z,4.85
2023-05-03T05:00:47.196Z,4.87
2023-05-03T05:03:24.529Z,4.92
2023-05-03T05:05:54.340Z,4.98
2023-05-03T05:08:23.922Z,5.06
2023-05-03T05:10:58.138Z,5.13
2023-05-03T05:13:33.985Z,5.21
2023-05-03T05:16:04.405Z,5.25
2023-05-03T05:18:34.907Z,5.29
2023-05-03T05:21:06.789Z,5.35
2023-05-03T05:23:38.005Z,5.43
2023-05-03T05:26:07.552Z,5.52
2023-05-03T05:28:38.361Z,5.59
2023-05-03T05:31:08.035Z,5.67
2023-05-03T05:33:38.333Z,5.74
2023-05-03T05:36:08.567Z,5.81
2023-05-03T05:38:38.354Z,5.86
2023-05-03T05:41:07.962Z,5.90
2023-05-03T05:43:38.883Z,5.95
2023-05-03T05:46:08.479Z,6.03
2023-05-03T05:48:39.106Z,6.10
2023-05-03T05:51:10.117Z,6.17
2023-05-03T05:53:40.012Z,6.22
2023-05-03T05:56:11.387Z,6.26
2023-05-03T05:58:42.253Z,6.30
2023-05-03T06:01:12.922Z,6.37
2023-05-03T06:03:43.769Z,6.42
2023-05-03T06:06:13.509Z,6.49
2023-05-03T06:08:43.128Z,6.54
2023-05-03T06:11:14.497Z,6.58
2023-05-03T06:13:45.969Z,6.61
2023-05-03T06:16:17.677Z,6.62
2023-05-03T06:18:47.042Z,6.67
2023-05-03T06:21:16.651Z,6.72
2023-05-03T06:23:46.203Z,6.77
2023-05-03T06:26:17.537Z,6.83
2023-05-03T06:28:50.472Z,6.85
2023-05-03T06:31:20.423Z,6.85
2023-05-03T06:33:50.881Z,6.91
2023-05-03T06:36:20.944Z,6.99
2023-05-03T06:38:50.988Z,7.04
2023-05-03T06:41:20.687Z,7.05
2023-05-03T06:43:51.674Z,7.09
2023-05-03T06:46:21.242Z,7.08
2023-05-03T06:48:50.927Z,7.12
2023-05-03T06:51:22.695Z,7.11
2023-05-03T06:53:52.573Z,7.12
2023-05-03T06:56:22.043Z,7.12
2023-05-03T06:58:52.979Z,7.17
2023-05-03T07:01:23.255Z,7.20
2023-05-03T07:03:52.907Z,7.25
2023-05-03T07:06:23.500Z,7.31
2023-05-03T07:08:53.322Z,7.38
2023-05-03T07:11:24.082Z,7.41
2023-05-03T07:13:56.063Z,7.42
2023-05-03T07:16:25.658Z,7.45
2023-05-03T07:18:55.109Z,7.52
2023-05-03T07:21:26.872Z,7.59
2023-05-03T07:23:56.347Z,7.64
2023-05-03T07:26:27.020Z,7.67
2023-05-03T07:28:57.824Z,7.70
2023-05-03T07:31:27.691Z,7.70
2023-05-03T07:33:57.411Z,7.77
2023-05-03T07:36:27.580Z,7.83
2023-05-03T07:38:58.575Z,7.91
2023-05-03T07:41:28.522Z,8.00
2023-05-03T07:43:59.487Z,8.07
2023-05-03T07:46:28.991Z,8.09
2023-05-03T07:49:00.369Z,8.10
2023-05-03T07:51:30.038Z,8.13
2023-05-03T07:53:59.975Z,8.21
2023-05-03T07:56:29.938Z,8.24
2023-05-03T07:59:09.231Z,8.31
2023-05-03T08:01:39.779Z,8.33
2023-05-03T08:04:09.756Z,8.35
2023-05-03T08:06:39.482Z,8.40
2023-05-03T08:09:09.002Z,8.37
2023-05-03T08:11:38.437Z,8.40
2023-05-03T08:14:09.252Z,8.44
2023-05-03T08:16:38.988Z,8.51
2023-05-03T08:19:09.021Z,8.54
2023-05-03T08:21:39.250Z,8.60
2023-05-03T08:24:10.177Z,8.69
2023-05-03T08:26:40.202Z,8.75
2023-05-03T08:29:12.584Z,8.85
2023-05-03T08:31:43.778Z,8.90
2023-05-03T08:34:13.295Z,8.97
2023-05-03T08:36:42.787Z,9.07
2023-05-03T08:39:12.238Z,9.10
2023-05-03T08:41:41.908Z,9.13
2023-05-03T08:44:20.965Z,9.16
2023-05-03T08:46:50.548Z,9.18
2023-05-03T08:49:21.466Z,9.19
2023-05-03T08:51:51.574Z,9.16
2023-05-03T08:54:22.059Z,9.21
2023-05-03T08:56:52.162Z,9.27
2023-05-03T08:59:22.999Z,9.29
2023-05-03T09:01:54.840Z,9.27
2023-05-03T09:04:35.098Z,9.28
2023-05-03T20:50:25.925Z,8.37
2023-05-03T20:52:56.608Z,8.28
2023-05-03T20:55:26.097Z,8.22
2023-05-03T20:57:55.880Z,8.19
2023-05-03T21:00:26.278Z,8.15
2023-05-03T21:02:55.855Z,8.09
2023-05-03T21:05:26.878Z,8.04
2023-05-03T21:07:56.373Z,7.99
2023-05-03T21:10:26.243Z,7.93
2023-05-03T21:12:55.790Z,7.90
2023-05-03T21:15:25.267Z,7.84
2023-05-03T21:17:54.890Z,7.77
2023-05-03T21:20:25.829Z,7.72
2023-05-03T21:22:55.328Z,7.69
2023-05-03T21:25:25.304Z,7.65
2023-05-03T21:27:55.069Z,7.58
2023-05-03T21:30:24.643Z,7.54
2023-05-03T21:32:54.062Z,7.51
2023-05-03T21:35:23.590Z,7.42
2023-05-03T21:37:54.671Z,7.36
2023-05-03T21:40:24.283Z,7.32
2023-05-03T21:42:54.024Z,7.29
2023-05-03T21:45:24.089Z,7.24
2023-05-03T21:47:53.747Z,7.16
2023-05-03T21:50:23.996Z,7.13
2023-05-03T21:52:55.171Z,7.07
2023-05-03T21:55:24.810Z,7.01
2023-05-03T21:57:54.382Z,6.95
2023-05-03T22:00:25.093Z,6.92
2023-05-03T22:02:54.727Z,6.88
2023-05-03T22:05:24.372Z,6.83
2023-05-03T22:07:55.388Z,6.75
2023-05-03T22:10:24.917Z,6.69
2023-05-03T22:12:54.723Z,6.63
2023-05-03T22:15:24.259Z,6.59
2023-05-03T22:17:54.105Z,6.56
2023-05-03T22:20:24.718Z,6.55
2023-05-03T22:22:56.302Z,6.55
2023-05-03T22:25:27.086Z,6.58
2023-05-03T22:27:56.562Z,6.66
2023-05-03T22:30:26.033Z,6.71
2023-05-03T22:32:55.555Z,6.72
2023-05-03T22:35:25.305Z,6.71
2023-05-03T22:37:56.114Z,6.69
2023-05-03T22:40:25.650Z,6.68
2023-05-03T22:42:55.244Z,6.60
2023-05-03T22:45:24.784Z,6.56
2023-05-03T22:47:54.393Z,6.50
2023-05-03T22:50:23.867Z,6.44
2023-05-03T22:52:54.758Z,6.39
2023-05-03T22:55:24.194Z,6.35
2023-05-03T22:57:53.896Z,6.34
2023-05-03T23:00:23.683Z,6.34
2023-05-03T23:02:53.233Z,6.33
2023-05-03T23:05:23.008Z,6.25
2023-05-03T23:07:52.529Z,6.19
2023-05-03T23:10:23.382Z,6.14
2023-05-03T23:12:52.853Z,6.12
2023-05-03T23:15:22.360Z,6.09
2023-05-03T23:17:54.744Z,6.08
2023-05-03T23:20:24.445Z,6.06
2023-05-03T23:22:53.970Z,6.03
2023-05-03T23:25:24.741Z,6.02
2023-05-03T23:27:54.433Z,6.01
2023-05-03T23:30:24.468Z,6.04
2023-05-03T23:32:54.521Z,6.06
